Time;durP1;ratioP1;P1;durP2;ratioP2;P2;SDS_P1;SDS_P2;PMS_P1;PMS_P2;Temp;Humidity;BMP_temperature;BMP_pressure;BME280_temperature;BME280_humidity;BME280_pressure;Samples;Min_cycle;Max_cycle;Signal;HPM_P1;HPM_P2
2022/04/24 00:01:39;;;;;;;6.17;3.93;;;9.00;97.10;;;;;;5086242;28;20194;-61
2022/04/24 00:04:04;;;;;;;5.87;4.23;;;8.90;97.70;;;;;;5084423;28;20201;-61
2022/04/24 00:06:32;;;;;;;5.47;4.47;;;8.80;98.00;;;;;;5086523;28;20189;-61
2022/04/24 00:08:58;;;;;;;4.30;3.90;;;8.90;98.20;;;;;;5084279;28;20205;-61
2022/04/24 00:11:24;;;;;;;6.53;4.13;;;8.90;98.50;;;;;;5086311;28;20182;-61
2022/04/24 00:13:49;;;;;;;6.30;4.47;;;8.80;98.80;;;;;;5082481;28;20599;-61
2022/04/24 00:16:15;;;;;;;6.33;4.53;;;8.70;99.40;;;;;;5085904;28;20232;-61
2022/04/24 00:18:41;;;;;;;5.83;4.67;;;8.60;99.70;;;;;;5084578;28;20226;-66
2022/04/24 00:21:07;;;;;;;6.73;4.40;;;8.70;99.80;;;;;;5083639;28;20177;-65
2022/04/24 00:23:33;;;;;;;9.53;5.40;;;8.70;99.90;;;;;;5083939;28;20193;-66
2022/04/24 00:25:59;;;;;;;7.77;4.27;;;8.70;99.90;;;;;;5086715;28;20215;-65
2022/04/24 00:28:27;;;;;;;4.93;4.40;;;8.60;99.90;;;;;;5085404;28;20229;-66
2022/04/24 00:30:52;;;;;;;5.27;4.43;;;8.60;99.90;;;;;;5083941;28;20362;-62
2022/04/24 00:33:18;;;;;;;7.03;4.57;;;8.50;99.90;;;;;;5085969;28;20703;-64
2022/04/24 00:35:44;;;;;;;5.47;4.90;;;8.50;99.90;;;;;;5084050;28;20286;-64
2022/04/24 00:38:10;;;;;;;5.97;4.33;;;8.50;99.90;;;;;;5086370;28;20182;-65
2022/04/24 00:40:36;;;;;;;4.47;4.07;;;8.50;99.90;;;;;;5084114;28;20198;-63
2022/04/24 00:43:01;;;;;;;6.93;4.23;;;8.40;99.90;;;;;;5085975;28;20284;-63
2022/04/24 00:45:27;;;;;;;5.33;4.40;;;8.30;99.90;;;;;;5084205;28;20198;-66
2022/04/24 00:47:52;;;;;;;4.43;3.73;;;8.30;99.90;;;;;;5085517;28;20266;-66
2022/04/24 00:50:18;;;;;;;4.70;4.30;;;8.30;99.90;;;;;;5084228;28;20640;-66
2022/04/24 00:52:46;;;;;;;5.23;3.30;;;8.20;99.90;;;;;;5085693;28;20240;-66
2022/04/24 00:55:11;;;;;;;5.17;4.53;;;8.20;99.90;;;;;;5083887;28;20194;-66
2022/04/24 00:57:37;;;;;;;5.63;3.90;;;8.10;99.90;;;;;;5084202;28;20193;-65
2022/04/24 01:00:04;;;;;;;5.60;4.10;;;8.10;99.90;;;;;;5083914;28;20245;-63
2022/04/24 01:02:29;;;;;;;7.07;4.67;;;8.10;99.90;;;;;;5084634;28;20185;-64
2022/04/24 01:04:57;;;;;;;4.93;4.43;;;8.10;99.90;;;;;;5083829;28;20208;-65
2022/04/24 01:07:23;;;;;;;6.93;4.70;;;8.10;99.90;;;;;;5085994;28;20221;-64
2022/04/24 01:09:48;;;;;;;5.20;4.30;;;8.00;99.90;;;;;;5080182;28;20292;-64
2022/04/24 01:12:14;;;;;;;6.50;4.20;;;7.90;99.90;;;;;;5085021;28;20190;-65
2022/04/24 01:14:39;;;;;;;4.77;3.63;;;7.80;99.90;;;;;;5083222;28;20672;-65
2022/04/24 01:17:05;;;;;;;5.63;4.30;;;7.90;99.90;;;;;;5085100;28;20776;-65
2022/04/24 01:19:32;;;;;;;7.40;4.70;;;7.90;99.90;;;;;;5059650;28;20198;-60
2022/04/24 01:21:58;;;;;;;6.87;3.90;;;7.80;99.90;;;;;;5085357;28;20313;-63
2022/04/24 01:24:26;;;;;;;8.93;4.50;;;7.80;99.90;;;;;;5083406;28;20202;-65
2022/04/24 01:26:51;;;;;;;7.77;4.97;;;7.80;99.90;;;;;;5084557;28;20208;-61
2022/04/24 01:29:18;;;;;;;7.53;4.20;;;7.70;99.90;;;;;;5083565;28;20209;-62
2022/04/24 01:31:45;;;;;;;8.83;4.70;;;7.70;99.90;;;;;;5085452;28;20190;-65
2022/04/24 01:34:12;;;;;;;5.03;4.57;;;7.70;99.90;;;;;;5070243;28;20654;-65
2022/04/24 01:36:37;;;;;;;8.17;5.07;;;7.60;99.90;;;;;;5085227;28;20200;-66
2022/04/24 01:39:04;;;;;;;5.60;4.30;;;7.50;99.90;;;;;;5083226;28;20656;-65
2022/04/24 01:41:31;;;;;;;5.00;4.50;;;7.50;99.90;;;;;;5085079;28;20624;-65
2022/04/24 01:43:57;;;;;;;6.60;4.10;;;7.50;99.90;;;;;;5083192;28;20334;-65
2022/04/24 01:46:22;;;;;;;5.80;4.70;;;7.40;99.90;;;;;;5085674;28;20280;-65
2022/04/24 01:48:48;;;;;;;7.43;4.30;;;7.50;99.90;;;;;;5083073;28;20293;-65
2022/04/24 01:51:14;;;;;;;5.73;4.33;;;7.50;99.90;;;;;;5085188;28;20186;-64
2022/04/24 01:53:40;;;;;;;6.40;4.70;;;7.40;99.90;;;;;;5083092;28;20209;-64
2022/04/24 01:56:07;;;;;;;8.57;5.13;;;7.50;99.90;;;;;;5085449;28;20189;-63
2022/04/24 01:58:33;;;;;;;11.03;5.07;;;7.50;99.90;;;;;;5077436;28;20192;-64
2022/04/24 02:01:00;;;;;;;7.17;4.90;;;7.50;99.90;;;;;;5085330;28;20181;-65
2022/04/24 02:03:27;;;;;;;5.20;4.70;;;7.40;99.90;;;;;;5084589;28;20255;-64
2022/04/24 02:05:53;;;;;;;5.60;4.77;;;7.30;99.90;;;;;;5082854;28;20300;-65
2022/04/24 02:08:18;;;;;;;7.90;5.13;;;7.30;99.90;;;;;;5082069;28;20240;-65
2022/04/24 02:10:44;;;;;;;7.80;5.40;;;7.30;99.90;;;;;;5086216;28;20684;-64
2022/04/24 02:13:09;;;;;;;5.30;4.50;;;7.30;99.90;;;;;;5088911;28;20213;-65
2022/04/24 02:15:35;;;;;;;8.37;6.27;;;7.30;99.90;;;;;;5087000;28;20271;-66
2022/04/24 02:18:01;;;;;;;5.83;5.13;;;7.30;99.90;;;;;;5088629;28;20194;-66
2022/04/24 02:20:30;;;;;;;10.93;5.40;;;7.30;99.90;;;;;;5086861;28;20624;-66
2022/04/24 02:22:59;;;;;;;6.20;4.63;;;7.20;99.90;;;;;;5088922;28;20197;-66
2022/04/24 02:25:25;;;;;;;8.60;4.67;;;7.20;99.90;;;;;;5082853;28;20190;-66
2022/04/24 02:27:55;;;;;;;6.47;4.80;;;7.10;99.90;;;;;;5088245;28;20229;-66
2022/04/24 02:30:21;;;;;;;8.47;4.73;;;7.10;99.90;;;;;;5086888;28;20228;-67
2022/04/24 02:32:48;;;;;;;6.63;5.00;;;7.20;99.90;;;;;;5087504;28;20206;-66
2022/04/24 02:35:14;;;;;;;5.87;4.53;;;7.10;99.90;;;;;;5087812;28;20193;-66
2022/04/24 02:37:39;;;;;;;8.90;4.90;;;7.10;99.90;;;;;;5086822;28;20204;-66
2022/04/24 02:40:09;;;;;;;7.73;5.33;;;7.00;99.90;;;;;;5088582;28;20695;-66
2022/04/24 02:42:36;;;;;;;5.23;4.70;;;7.00;99.90;;;;;;5086725;28;20254;-66
2022/04/24 02:45:03;;;;;;;7.30;4.63;;;7.00;99.90;;;;;;5088966;28;20213;-66
2022/04/24 02:47:29;;;;;;;6.93;4.97;;;6.90;99.90;;;;;;5086451;28;20254;-66
2022/04/24 02:49:54;;;;;;;9.17;5.40;;;7.00;99.90;;;;;;5088388;28;20178;-66
2022/04/24 02:52:20;;;;;;;10.80;5.13;;;7.00;99.90;;;;;;5086263;28;20254;-60
2022/04/24 02:54:45;;;;;;;10.70;5.90;;;7.00;99.90;;;;;;5088127;28;20233;-65
2022/04/24 02:57:12;;;;;;;11.93;5.50;;;6.80;99.90;;;;;;5087020;28;20946;-64
2022/04/24 02:59:38;;;;;;;7.13;5.80;;;6.80;99.90;;;;;;5088341;28;20835;-64
2022/04/24 03:02:04;;;;;;;7.60;4.67;;;6.70;99.90;;;;;;5086305;28;20251;-64
2022/04/24 03:04:29;;;;;;;8.43;5.60;;;6.80;99.90;;;;;;5088349;28;20204;-64
2022/04/24 03:06:55;;;;;;;8.80;5.30;;;6.80;99.90;;;;;;5086012;28;20292;-65
2022/04/24 03:09:20;;;;;;;7.00;4.77;;;6.80;99.90;;;;;;5088520;28;20177;-66
2022/04/24 03:11:45;;;;;;;8.20;4.87;;;6.70;99.90;;;;;;5085868;28;20262;-66
2022/04/24 03:14:12;;;;;;;8.87;4.70;;;6.70;99.90;;;;;;5088115;28;20240;-66
2022/04/24 03:16:37;;;;;;;7.30;5.27;;;6.80;99.90;;;;;;5078923;28;20196;-66
2022/04/24 03:19:03;;;;;;;6.97;4.70;;;6.80;99.90;;;;;;5086261;28;20198;-66
2022/04/24 03:21:29;;;;;;;8.57;5.17;;;6.70;99.90;;;;;;5086716;28;20198;-66
2022/04/24 03:23:55;;;;;;;8.63;5.20;;;6.80;99.90;;;;;;5085744;28;20216;-64
2022/04/24 03:26:20;;;;;;;6.57;4.60;;;6.70;99.90;;;;;;5087724;28;20296;-65
2022/04/24 03:28:46;;;;;;;6.77;5.53;;;6.60;99.90;;;;;;5085985;28;20236;-66
2022/04/24 03:31:12;;;;;;;6.03;4.67;;;6.60;99.90;;;;;;5087461;28;20189;-65
2022/04/24 03:33:38;;;;;;;11.90;4.90;;;6.60;99.90;;;;;;5085056;28;20218;-65
2022/04/24 03:36:03;;;;;;;8.80;5.57;;;6.60;99.90;;;;;;5087611;28;20670;-65
2022/04/24 03:38:29;;;;;;;9.33;5.43;;;6.60;99.90;;;;;;5085918;28;20576;-65
2022/04/24 03:40:56;;;;;;;8.90;5.57;;;6.60;99.90;;;;;;5069507;28;20190;-66
2022/04/24 03:43:21;;;;;;;8.83;5.60;;;6.60;99.90;;;;;;5085564;28;20211;-66
2022/04/24 03:45:47;;;;;;;8.13;5.40;;;6.60;99.90;;;;;;5087207;28;20910;-66
2022/04/24 03:48:12;;;;;;;7.60;5.60;;;6.50;99.90;;;;;;5085462;28;20205;-65
2022/04/24 03:50:38;;;;;;;8.87;6.27;;;6.50;99.90;;;;;;5087372;28;20216;-65
2022/04/24 03:53:03;;;;;;;7.47;5.60;;;6.60;99.90;;;;;;5084352;28;20198;-65
2022/04/24 03:55:29;;;;;;;6.83;5.77;;;6.60;99.90;;;;;;5087272;28;20193;-67
2022/04/24 03:57:55;;;;;;;10.20;5.60;;;6.50;99.90;;;;;;5085290;28;20575;-66
2022/04/24 04:00:20;;;;;;;8.77;6.27;;;6.50;99.90;;;;;;5087067;28;20224;-66
2022/04/24 04:02:47;;;;;;;9.90;5.83;;;6.60;99.90;;;;;;5085226;28;20606;-66
2022/04/24 04:05:14;;;;;;;8.13;6.17;;;6.60;99.90;;;;;;5086931;28;20201;-66
2022/04/24 04:07:39;;;;;;;8.40;5.93;;;6.50;99.90;;;;;;5084939;28;20828;-66
2022/04/24 04:10:06;;;;;;;10.30;6.43;;;6.40;99.90;;;;;;5086876;28;20185;-66
2022/04/24 04:12:32;;;;;;;6.63;5.93;;;6.40;99.90;;;;;;5085169;28;20281;-67
2022/04/24 04:15:00;;;;;;;7.57;6.00;;;6.30;99.90;;;;;;5086943;28;20838;-66
2022/04/24 04:17:26;;;;;;;7.30;5.37;;;6.30;99.90;;;;;;5084700;28;20193;-67
2022/04/24 04:19:51;;;;;;;7.97;5.83;;;6.30;99.90;;;;;;5086875;28;20196;-67
2022/04/24 04:22:17;;;;;;;7.50;5.47;;;6.30;99.90;;;;;;5084648;28;20247;-66
2022/04/24 04:24:43;;;;;;;8.00;6.67;;;6.40;99.90;;;;;;5086504;28;20237;-67
2022/04/24 04:27:10;;;;;;;9.20;6.77;;;6.40;99.90;;;;;;5084439;28;20316;-67
2022/04/24 04:29:36;;;;;;;9.20;5.37;;;6.50;99.90;;;;;;5086316;28;20193;-67
2022/04/24 04:32:02;;;;;;;10.33;5.77;;;6.50;99.90;;;;;;5084225;28;20224;-68
2022/04/24 04:34:28;;;;;;;8.40;5.80;;;6.60;99.90;;;;;;5086650;28;20245;-67
2022/04/24 04:36:53;;;;;;;8.70;6.23;;;6.60;99.90;;;;;;5084240;28;20227;-67
2022/04/24 04:39:20;;;;;;;7.97;5.60;;;6.60;99.90;;;;;;5086548;28;20185;-67
2022/04/24 04:41:45;;;;;;;6.50;5.47;;;6.60;99.90;;;;;;5085071;28;20246;-66
2022/04/24 04:44:11;;;;;;;7.60;5.57;;;6.60;99.90;;;;;;5086438;28;20201;-66
2022/04/24 04:46:37;;;;;;;9.10;5.60;;;6.70;99.90;;;;;;5081537;28;20250;-67
2022/04/24 04:49:03;;;;;;;8.83;5.23;;;6.70;99.90;;;;;;5084111;28;20342;-66
2022/04/24 04:51:29;;;;;;;7.47;5.07;;;6.80;99.90;;;;;;5086181;28;20308;-65
2022/04/24 04:53:55;;;;;;;6.87;5.87;;;6.80;99.90;;;;;;5084207;28;20221;-66
2022/04/24 04:56:22;;;;;;;9.90;6.00;;;6.80;99.90;;;;;;5085874;28;20193;-65
2022/04/24 04:58:47;;;;;;;10.10;6.27;;;6.70;99.90;;;;;;5084395;28;20220;-66
2022/04/24 05:01:13;;;;;;;7.77;6.07;;;6.70;99.90;;;;;;5085589;28;20628;-66
2022/04/24 05:03:38;;;;;;;9.63;6.40;;;6.70;99.90;;;;;;5084087;28;20235;-66
2022/04/24 05:06:04;;;;;;;10.13;7.00;;;6.80;99.90;;;;;;5085930;28;20208;-65
2022/04/24 05:08:30;;;;;;;7.80;6.57;;;6.80;99.90;;;;;;5083849;28;20680;-68
2022/04/24 05:10:55;;;;;;;11.10;6.30;;;6.90;99.90;;;;;;5085300;28;20596;-66
2022/04/24 05:13:21;;;;;;;9.40;5.90;;;7.10;99.90;;;;;;5083898;28;20221;-67
2022/04/24 05:15:46;;;;;;;6.83;5.10;;;7.20;99.90;;;;;;5085501;28;20189;-68
2022/04/24 05:18:12;;;;;;;11.87;6.93;;;7.20;99.90;;;;;;5083376;28;20281;-68
2022/04/24 05:20:37;;;;;;;13.33;6.97;;;7.20;99.90;;;;;;5076695;28;20194;-66
2022/04/24 05:23:05;;;;;;;6.90;5.67;;;7.30;99.90;;;;;;5083659;28;20664;-65
2022/04/24 05:25:30;;;;;;;9.70;6.23;;;7.30;99.90;;;;;;5085503;28;20205;-67
2022/04/24 05:27:56;;;;;;;8.23;6.57;;;7.40;99.90;;;;;;5082909;28;20695;-66
2022/04/24 05:30:23;;;;;;;7.83;6.10;;;7.50;99.90;;;;;;5085400;28;20566;-65
2022/04/24 05:32:50;;;;;;;9.73;6.40;;;7.50;99.90;;;;;;5072967;28;20262;-66
2022/04/24 05:35:16;;;;;;;6.90;6.00;;;7.70;99.90;;;;;;5084634;28;20193;-66
2022/04/24 05:37:42;;;;;;;7.30;6.40;;;7.80;99.90;;;;;;5083152;28;20387;-66
2022/04/24 05:40:09;;;;;;;5.97;5.37;;;7.90;99.90;;;;;;5085117;28;20651;-65
2022/04/24 05:42:34;;;;;;;9.03;6.67;;;7.90;99.90;;;;;;5082937;28;20244;-67
2022/04/24 05:45:01;;;;;;;10.27;7.97;;;8.10;99.90;;;;;;5084899;28;20200;-67
2022/04/24 05:47:27;;;;;;;8.93;6.33;;;8.10;99.90;;;;;;5070205;28;20205;-66
2022/04/24 05:49:52;;;;;;;11.07;5.90;;;8.20;99.90;;;;;;5085014;28;20607;-67
2022/04/24 05:52:18;;;;;;;9.37;6.10;;;8.40;99.90;;;;;;5083071;28;20248;-66
2022/04/24 05:54:43;;;;;;;9.23;6.63;;;8.60;99.90;;;;;;5085192;28;20197;-67
2022/04/24 05:57:09;;;;;;;8.13;6.67;;;8.70;99.90;;;;;;5083265;28;20656;-67
2022/04/24 05:59:34;;;;;;;8.43;6.00;;;8.60;99.90;;;;;;5085277;28;20543;-66
2022/04/24 06:02:00;;;;;;;6.80;6.10;;;8.80;99.90;;;;;;5082812;28;22955;-66
2022/04/24 06:04:26;;;;;;;16.67;6.53;;;8.90;99.90;;;;;;5084991;28;20185;-66
2022/04/24 06:06:52;;;;;;;7.73;7.03;;;9.20;99.90;;;;;;5082675;28;20194;-67
2022/04/24 06:09:18;;;;;;;8.37;6.50;;;9.30;99.90;;;;;;5085448;28;20182;-66
2022/04/24 06:11:44;;;;;;;7.20;5.83;;;9.50;99.90;;;;;;5082657;28;20225;-66
2022/04/24 06:14:09;;;;;;;8.30;5.63;;;9.40;99.90;;;;;;5085211;28;20247;-67
2022/04/24 06:16:36;;;;;;;8.53;5.97;;;9.40;99.90;;;;;;5084272;28;20197;-67
2022/04/24 06:19:01;;;;;;;8.27;5.33;;;9.50;99.90;;;;;;5083225;28;20713;-66
2022/04/24 06:21:27;;;;;;;6.50;5.70;;;9.50;99.90;;;;;;5084565;28;20197;-67
2022/04/24 06:23:52;;;;;;;14.17;7.30;;;9.40;99.90;;;;;;5082962;28;20203;-68
2022/04/24 06:26:18;;;;;;;9.33;6.13;;;9.60;99.90;;;;;;5065481;28;20225;-67
2022/04/24 06:28:43;;;;;;;9.63;5.47;;;9.60;99.90;;;;;;5082093;28;20372;-67
2022/04/24 06:31:09;;;;;;;6.60;5.90;;;9.50;99.90;;;;;;5084669;28;20810;-67
2022/04/24 06:33:34;;;;;;;8.37;6.27;;;9.70;99.90;;;;;;5082733;28;20210;-66
2022/04/24 06:36:01;;;;;;;7.17;5.73;;;9.80;99.90;;;;;;5084541;28;20243;-66
2022/04/24 06:38:26;;;;;;;15.87;11.73;;;9.90;99.90;;;;;;5081627;28;20198;-66
2022/04/24 06:40:53;;;;;;;7.00;6.27;;;9.90;99.90;;;;;;5084282;28;20201;-66
2022/04/24 06:43:18;;;;;;;7.30;5.70;;;9.90;99.90;;;;;;5083015;28;20211;-67
2022/04/24 06:45:44;;;;;;;7.10;6.40;;;10.10;99.90;;;;;;5084492;28;20197;-66
2022/04/24 06:48:15;;;;;;;7.97;5.67;;;10.10;99.90;;;;;;5082635;28;20691;-66
2022/04/24 06:50:43;;;;;;;8.17;6.03;;;10.20;99.90;;;;;;5071875;28;20341;-67
2022/04/24 06:53:14;;;;;;;7.47;5.50;;;10.10;99.90;;;;;;5083073;28;20207;-66
2022/04/24 06:55:42;;;;;;;11.30;7.40;;;10.10;99.90;;;;;;5086951;28;20209;-66
2022/04/24 06:58:09;;;;;;;9.13;6.80;;;10.10;99.90;;;;;;5086742;28;20200;-65
2022/04/24 07:00:38;;;;;;;7.37;6.60;;;10.10;99.90;;;;;;5088494;28;20192;-66
2022/04/24 07:03:21;;;;;;;9.33;6.37;;;10.20;99.90;;;;;;5086511;28;20207;-65
2022/04/24 07:05:47;;;;;;;13.27;6.67;;;10.30;99.90;;;;;;5084760;28;20182;-65
2022/04/24 07:08:12;;;;;;;7.47;6.10;;;10.60;99.90;;;;;;5086490;28;20208;-65
2022/04/24 07:10:39;;;;;;;8.00;6.00;;;10.70;99.90;;;;;;5088186;28;20186;-65
2022/04/24 07:13:05;;;;;;;10.10;6.37;;;10.90;99.90;;;;;;5086172;28;20693;-65
2022/04/24 07:15:35;;;;;;;9.30;6.20;;;10.80;99.90;;;;;;5074604;28;20195;-66
2022/04/24 07:18:02;;;;;;;7.67;5.73;;;10.90;99.90;;;;;;5085770;28;20216;-66
2022/04/24 07:20:29;;;;;;;10.33;5.17;;;11.00;99.90;;;;;;5069592;28;20649;-66
2022/04/24 07:22:58;;;;;;;8.90;6.47;;;11.10;99.90;;;;;;5086152;28;20208;-67
2022/04/24 07:25:25;;;;;;;7.57;5.10;;;11.20;99.90;;;;;;5085403;28;20199;-67
2022/04/24 07:27:52;;;;;;;9.13;6.10;;;11.50;99.90;;;;;;5076473;28;20236;-67
2022/04/24 07:30:19;;;;;;;6.30;5.70;;;11.50;99.90;;;;;;5070283;28;20193;-67
2022/04/24 07:32:55;;;;;;;10.10;6.93;;;11.60;99.90;;;;;;5085981;28;20207;-68
2022/04/24 07:35:25;;;;;;;6.43;5.80;;;11.60;99.90;;;;;;5068383;28;20188;-66
2022/04/24 07:37:52;;;;;;;7.20;5.90;;;11.40;99.90;;;;;;5085138;28;21250;-68
2022/04/24 07:40:19;;;;;;;6.03;5.43;;;11.60;99.90;;;;;;5087935;28;20598;-66
2022/04/24 07:42:58;;;;;;;10.70;6.23;;;11.80;99.70;;;;;;5085690;28;20208;-67
2022/04/24 07:45:30;;;;;;;7.90;5.90;;;12.00;99.40;;;;;;5087583;28;20248;-66
2022/04/24 07:47:58;;;;;;;8.73;5.37;;;12.00;99.20;;;;;;5085473;28;20208;-67
2022/04/24 07:50:25;;;;;;;6.53;5.83;;;12.00;99.40;;;;;;5087372;28;20181;-67
2022/04/24 07:52:52;;;;;;;7.33;5.73;;;11.90;99.30;;;;;;5085489;28;20199;-67
2022/04/24 07:55:22;;;;;;;7.07;5.27;;;11.80;99.50;;;;;;5087510;28;20208;-66
2022/04/24 07:57:48;;;;;;;6.17;5.57;;;11.90;99.20;;;;;;5074686;28;20252;-68
2022/04/24 08:00:15;;;;;;;9.87;6.27;;;12.20;98.90;;;;;;5086753;28;20189;-66
2022/04/24 08:03:00;;;;;;;6.87;5.80;;;12.40;98.60;;;;;;5084791;28;20202;-66
2022/04/24 08:05:37;;;;;;;7.17;6.00;;;12.60;98.30;;;;;;5087510;28;20620;-67
2022/04/24 08:08:06;;;;;;;9.87;5.67;;;12.90;97.80;;;;;;5080104;28;20192;-67
2022/04/24 08:10:34;;;;;;;5.93;5.33;;;13.10;97.20;;;;;;5086794;28;20199;-66
2022/04/24 08:13:00;;;;;;;8.37;5.63;;;13.20;97.10;;;;;;5084498;28;20849;-66
2022/04/24 08:15:26;;;;;;;8.07;5.87;;;13.30;96.50;;;;;;5086902;28;20219;-67
2022/04/24 08:17:51;;;;;;;8.40;6.10;;;13.40;96.60;;;;;;5084216;28;20656;-67
2022/04/24 08:20:18;;;;;;;6.83;5.67;;;13.30;96.10;;;;;;5086628;28;20178;-68
2022/04/24 08:22:46;;;;;;;5.63;5.13;;;13.40;96.30;;;;;;5073772;28;20205;-67
2022/04/24 08:25:14;;;;;;;6.47;5.87;;;13.30;96.50;;;;;;5086367;28;20659;-66
2022/04/24 08:27:40;;;;;;;6.37;4.93;;;13.40;96.20;;;;;;5084310;28;20233;-67
2022/04/24 08:30:09;;;;;;;5.77;5.13;;;13.50;95.90;;;;;;5086689;28;20193;-66
2022/04/24 08:32:35;;;;;;;7.13;5.60;;;13.60;95.70;;;;;;5084217;28;20196;-65
2022/04/24 08:35:01;;;;;;;6.57;4.80;;;13.70;94.90;;;;;;5086395;28;20205;-65
2022/04/24 08:37:27;;;;;;;5.47;4.97;;;14.10;93.70;;;;;;5084152;28;20254;-65
2022/04/24 08:39:53;;;;;;;5.67;4.70;;;14.30;92.70;;;;;;5086462;28;20265;-66
2022/04/24 08:42:21;;;;;;;5.20;4.43;;;14.30;91.60;;;;;;5084490;28;20189;-66
2022/04/24 08:44:48;;;;;;;5.33;4.53;;;14.20;91.60;;;;;;5085917;28;20281;-65
2022/04/24 08:47:15;;;;;;;4.43;4.03;;;14.30;91.40;;;;;;5083568;28;20663;-67
2022/04/24 08:49:41;;;;;;;4.83;3.77;;;14.60;90.90;;;;;;5085994;28;20264;-65
2022/04/24 08:52:11;;;;;;;4.93;4.53;;;14.60;90.50;;;;;;5083427;28;20827;-65
2022/04/24 08:54:41;;;;;;;4.20;3.90;;;14.70;90.50;;;;;;5085539;28;20998;-66
2022/04/24 08:57:10;;;;;;;5.57;5.07;;;14.80;89.10;;;;;;5083089;28;20197;-66
2022/04/24 08:59:39;;;;;;;4.40;4.10;;;14.70;88.50;;;;;;5084605;28;20527;-62
2022/04/24 09:02:06;;;;;;;7.33;5.00;;;14.80;87.90;;;;;;5082997;28;20189;-62
2022/04/24 09:04:35;;;;;;;6.00;4.33;;;14.70;87.70;;;;;;5085646;28;20178;-62
2022/04/24 09:07:03;;;;;;;4.60;4.10;;;14.70;88.10;;;;;;5082787;28;20200;-65
2022/04/24 09:09:44;;;;;;;5.47;4.37;;;15.00;87.80;;;;;;5083496;28;20174;-67
2022/04/24 09:12:10;;;;;;;6.90;4.57;;;15.10;89.30;;;;;;5082480;28;20199;-66
2022/04/24 09:14:36;;;;;;;4.93;4.43;;;15.10;88.30;;;;;;5085104;28;20227;-66
2022/04/24 09:17:18;;;;;;;6.33;5.10;;;15.30;87.30;;;;;;5082792;28;20197;-67
2022/04/24 09:19:45;;;;;;;5.37;4.87;;;15.60;84.80;;;;;;5083964;28;20212;-66
2022/04/24 09:22:11;;;;;;;7.93;4.80;;;15.50;83.90;;;;;;5082974;28;20205;-67
2022/04/24 09:24:45;;;;;;;4.93;4.43;;;15.30;84.60;;;;;;5085488;28;20177;-67
2022/04/24 09:27:22;;;;;;;4.80;4.07;;;15.40;84.60;;;;;;5082376;28;20235;-67
2022/04/24 09:30:14;;;;;;;6.10;4.37;;;15.40;84.90;;;;;;5081908;28;20196;-67
2022/04/24 09:32:48;;;;;;;6.53;5.40;;;15.70;84.50;;;;;;5078125;28;20211;-67
2022/04/24 09:35:26;;;;;;;6.73;5.33;;;15.70;85.10;;;;;;5084847;28;20392;-66
2022/04/24 09:37:52;;;;;;;4.13;3.83;;;15.90;84.30;;;;;;5083001;28;20687;-65
2022/04/24 09:40:19;;;;;;;5.17;4.00;;;16.00;85.00;;;;;;5083190;28;20193;-65
2022/04/24 09:42:52;;;;;;;5.60;4.37;;;16.20;84.00;;;;;;5085138;28;20719;-65
2022/04/24 09:45:25;;;;;;;7.43;6.30;;;16.10;82.90;;;;;;5083484;28;20212;-65
2022/04/24 09:47:59;;;;;;;5.17;4.67;;;15.90;80.80;;;;;;5077852;28;20667;-65
2022/04/24 09:50:29;;;;;;;5.93;5.33;;;16.00;82.50;;;;;;5083408;28;20292;-64
2022/04/24 09:52:57;;;;;;;7.60;4.93;;;16.30;82.80;;;;;;5084902;28;20197;-65
2022/04/24 09:55:24;;;;;;;5.53;4.97;;;16.50;82.00;;;;;;5082901;28;20216;-66
2022/04/24 09:57:51;;;;;;;6.93;5.13;;;16.60;81.30;;;;;;5083607;28;20185;-66
2022/04/24 10:00:17;;;;;;;8.27;5.57;;;16.50;80.30;;;;;;5082755;28;20202;-65
2022/04/24 10:02:43;;;;;;;6.20;4.80;;;16.60;79.10;;;;;;5084882;28;20205;-65
2022/04/24 10:05:09;;;;;;;6.10;5.50;;;16.60;79.70;;;;;;5082674;28;20201;-65
2022/04/24 10:07:35;;;;;;;6.87;5.43;;;16.60;79.10;;;;;;5071128;28;20189;-66
2022/04/24 10:10:01;;;;;;;6.03;5.17;;;16.50;79.20;;;;;;5081929;28;20366;-66
2022/04/24 10:12:27;;;;;;;5.97;4.20;;;16.40;79.00;;;;;;5083346;28;20280;-65
2022/04/24 10:14:58;;;;;;;5.13;4.13;;;16.60;81.20;;;;;;5081737;28;20224;-66
2022/04/24 10:17:52;;;;;;;6.03;5.33;;;16.90;81.40;;;;;;5083302;28;20481;-66
2022/04/24 10:20:36;;;;;;;7.03;4.83;;;17.20;79.30;;;;;;5076603;28;20281;-61
2022/04/24 10:23:02;;;;;;;6.23;4.10;;;17.20;78.20;;;;;;5074508;28;20691;-65
2022/04/24 10:25:37;;;;;;;5.87;5.27;;;17.20;80.30;;;;;;5077783;28;20315;-65
2022/04/24 10:28:16;;;;;;;5.47;4.60;;;17.40;80.60;;;;;;5078147;28;20777;-65
2022/04/24 10:30:46;;;;;;;5.23;4.73;;;17.40;76.20;;;;;;5084847;28;20275;-66
2022/04/24 10:33:15;;;;;;;5.33;4.83;;;17.50;76.40;;;;;;5087806;28;20190;-64
2022/04/24 10:36:14;;;;;;;4.73;4.20;;;17.60;75.70;;;;;;5084345;28;20189;-65
2022/04/24 10:38:54;;;;;;;6.07;5.20;;;17.80;77.40;;;;;;5086200;28;20209;-66
2022/04/24 10:41:23;;;;;;;3.47;3.17;;;17.80;75.00;;;;;;5083144;28;20264;-65
2022/04/24 10:43:56;;;;;;;4.67;4.20;;;18.20;74.30;;;;;;5085964;28;20204;-65
2022/04/24 10:46:32;;;;;;;4.63;4.20;;;17.80;74.20;;;;;;5086257;28;20186;-64
2022/04/24 10:49:08;;;;;;;5.23;4.40;;;17.80;75.90;;;;;;5083371;28;20197;-65
2022/04/24 10:51:35;;;;;;;7.67;5.20;;;18.10;74.60;;;;;;5088255;28;20173;-65
2022/04/24 10:54:12;;;;;;;5.80;4.97;;;18.10;73.60;;;;;;5085395;28;21637;-65
2022/04/24 10:56:39;;;;;;;5.13;3.80;;;17.80;75.50;;;;;;5088024;28;20250;-65
2022/04/24 10:59:07;;;;;;;5.73;4.53;;;17.60;75.70;;;;;;5085270;28;20210;-65
2022/04/24 11:01:33;;;;;;;5.30;4.40;;;17.60;75.50;;;;;;5087871;28;20182;-66
2022/04/24 11:04:05;;;;;;;4.37;3.87;;;17.70;75.90;;;;;;5083008;28;20202;-65
2022/04/24 11:06:30;;;;;;;4.37;4.03;;;17.90;75.20;;;;;;5087381;28;20200;-66
2022/04/24 11:09:12;;;;;;;4.83;4.43;;;18.00;74.80;;;;;;5082388;28;20193;-66
2022/04/24 11:12:03;;;;;;;5.57;4.60;;;17.80;74.70;;;;;;5086843;28;20173;-65
2022/04/24 11:14:29;;;;;;;4.70;4.03;;;17.40;75.50;;;;;;5085204;28;20214;-65
2022/04/24 11:16:57;;;;;;;5.07;4.17;;;17.00;77.50;;;;;;5085842;28;20198;-66
2022/04/24 11:19:35;;;;;;;4.40;4.00;;;17.00;77.20;;;;;;5084444;28;21012;-64
2022/04/24 11:22:12;;;;;;;4.53;3.97;;;17.20;76.80;;;;;;5085204;28;20181;-65
2022/04/24 11:24:40;;;;;;;5.17;4.00;;;17.20;76.60;;;;;;5085038;28;20647;-64
2022/04/24 11:27:09;;;;;;;4.87;4.20;;;17.20;74.70;;;;;;5086260;28;20233;-65
2022/04/24 11:29:35;;;;;;;3.80;3.50;;;17.10;75.00;;;;;;5084835;28;20206;-66
2022/04/24 11:32:02;;;;;;;5.73;4.10;;;17.10;75.00;;;;;;5086915;28;20327;-66
2022/04/24 11:34:28;;;;;;;5.23;4.40;;;17.30;75.00;;;;;;5085039;28;20609;-66
2022/04/24 11:36:57;;;;;;;4.33;3.30;;;17.50;74.20;;;;;;5086944;28;20181;-65
2022/04/24 11:39:22;;;;;;;3.50;3.30;;;17.50;73.00;;;;;;5083091;28;20201;-65
2022/04/24 11:41:52;;;;;;;4.30;3.90;;;17.60;73.20;;;;;;5086375;28;20188;-65
2022/04/24 11:52:40;;;;;;;5.30;3.73;;;17.20;72.70;;;;;;5085449;28;20252;-74
2022/04/24 11:55:22;;;;;;;5.60;4.57;;;17.40;71.20;;;;;;5085120;28;20246;-65
2022/04/24 11:57:59;;;;;;;3.73;3.03;;;17.40;70.30;;;;;;5083456;28;20724;-67
2022/04/24 12:00:37;;;;;;;5.00;3.87;;;17.30;71.40;;;;;;5084199;28;20213;-66
2022/04/24 12:03:04;;;;;;;4.80;3.20;;;17.20;72.20;;;;;;5086797;28;20201;-66
2022/04/24 12:05:29;;;;;;;4.13;3.73;;;17.10;72.80;;;;;;5084753;28;20705;-67
2022/04/24 12:07:56;;;;;;;3.57;2.93;;;17.20;72.70;;;;;;5086510;28;20283;-63
2022/04/24 12:10:23;;;;;;;3.47;2.63;;;17.40;70.50;;;;;;5084985;28;20213;-62
2022/04/24 12:12:51;;;;;;;4.13;3.27;;;17.20;68.00;;;;;;5076967;28;20212;-63
2022/04/24 12:15:24;;;;;;;3.93;3.40;;;17.00;67.70;;;;;;5084593;28;20228;-63
2022/04/24 12:17:58;;;;;;;5.77;3.60;;;17.10;67.70;;;;;;5086046;28;20221;-63
2022/04/24 12:20:38;;;;;;;5.13;3.77;;;17.10;68.10;;;;;;5079026;28;20714;-63
2022/04/24 12:23:09;;;;;;;10.13;3.77;;;17.50;68.40;;;;;;5084837;28;20686;-61
2022/04/24 12:25:49;;;;;;;3.57;3.37;;;18.10;67.80;;;;;;5084518;28;20565;-62
2022/04/24 12:28:36;;;;;;;4.27;3.50;;;18.70;65.90;;;;;;5079122;28;20554;-62
2022/04/24 12:31:03;;;;;;;7.53;2.73;;;20.00;62.70;;;;;;5084157;28;20206;-62
2022/04/24 12:33:31;;;;;;;2.77;2.57;;;20.30;60.40;;;;;;5086384;28;20209;-62
2022/04/24 12:36:10;;;;;;;3.63;2.80;;;20.50;59.60;;;;;;5084310;28;20297;-62
2022/04/24 12:38:36;;;;;;;3.83;3.40;;;20.70;57.70;;;;;;5082359;28;20193;-61
2022/04/24 12:41:01;;;;;;;3.00;2.80;;;20.70;57.00;;;;;;5083413;28;20599;-64
2022/04/24 12:43:30;;;;;;;3.47;3.17;;;20.60;56.90;;;;;;5085635;28;20189;-62
2022/04/24 12:45:55;;;;;;;3.00;2.70;;;20.30;56.90;;;;;;5083597;28;20202;-62
2022/04/24 12:48:22;;;;;;;4.10;2.87;;;20.40;56.30;;;;;;5085254;28;20208;-62
2022/04/24 12:50:50;;;;;;;2.60;2.40;;;20.50;55.40;;;;;;5083545;28;20205;-62
2022/04/24 12:53:16;;;;;;;3.13;2.73;;;20.20;55.70;;;;;;5084046;28;20236;-65
2022/04/24 12:55:42;;;;;;;4.67;2.60;;;20.40;55.40;;;;;;5080332;28;20604;-62
2022/04/24 12:58:14;;;;;;;3.07;2.80;;;20.40;56.00;;;;;;5085086;28;20197;-61
2022/04/24 13:00:43;;;;;;;4.10;3.13;;;19.70;55.10;;;;;;5083267;28;20202;-62
2022/04/24 13:03:15;;;;;;;6.20;2.83;;;19.00;56.60;;;;;;5085090;28;20221;-61